createdAt,value
2022-10-22T00:02:20.019Z,100078.69
2022-10-22T00:05:26.917Z,100078.64
2022-10-22T00:08:33.697Z,100078.27
2022-10-22T00:11:40.653Z,100079.98
2022-10-22T00:14:47.543Z,100081.44
2022-10-22T00:17:54.330Z,100079.20
2022-10-22T00:21:01.219Z,100081.88
2022-10-22T00:24:08.367Z,100079.98
2022-10-22T00:27:15.270Z,100065.89
2022-10-22T00:30:22.074Z,100053.77
2022-10-22T00:33:29.945Z,100052.27
2022-10-22T00:36:36.668Z,100050.89
2022-10-22T00:39:43.275Z,100046.67
2022-10-22T00:42:49.972Z,100045.18
2022-10-22T00:45:56.592Z,100052.38
2022-10-22T00:49:05.397Z,100049.70
2022-10-22T00:52:12.500Z,100044.69
2022-10-22T00:55:21.369Z,100047.14
2022-10-22T00:58:30.636Z,100047.63
2022-10-22T01:01:37.081Z,100043.70
2022-10-22T01:04:44.339Z,100041.08
2022-10-22T01:07:53.729Z,100036.23
2022-10-22T01:11:09.263Z,100028.15
2022-10-22T01:14:25.540Z,100015.70
2022-10-22T01:17:37.335Z,100012.95
2022-10-22T01:21:01.633Z,100008.05
2022-10-22T01:24:40.352Z,100008.09
2022-10-22T01:28:02.679Z,100010.45
2022-10-22T01:31:12.987Z,100013.23
2022-10-22T01:34:21.435Z,100007.90
2022-10-22T01:37:32.732Z,100014.01
2022-10-22T01:40:40.392Z,100008.71
2022-10-22T01:43:46.893Z,100010.09
2022-10-22T01:47:15.156Z,100014.17
2022-10-22T01:50:42.728Z,100015.33
2022-10-22T01:53:55.364Z,100012.77
2022-10-22T01:57:16.926Z,100012.44
2022-10-22T02:00:24.736Z,100018.01
2022-10-22T02:03:38.778Z,100018.98
2022-10-22T02:06:47.850Z,100025.94
2022-10-22T02:09:57.309Z,100028.92
2022-10-22T02:13:02.686Z,100037.91
2022-10-22T02:16:12.049Z,100031.20
2022-10-22T02:19:20.853Z,100026.62
2022-10-22T02:22:28.765Z,100021.39
2022-10-22T02:25:41.446Z,100017.84
2022-10-22T02:28:56.014Z,100015.55
2022-10-22T02:32:05.148Z,100013.35
2022-10-22T02:35:14.711Z,100007.38
2022-10-22T02:38:22.204Z,100013.12
2022-10-22T02:41:29.548Z,100018.09
2022-10-22T02:44:36.065Z,100022.23
2022-10-22T02:47:42.776Z,100032.48
2022-10-22T02:50:49.298Z,100044.54
2022-10-22T02:53:56.015Z,100038.75
2022-10-22T02:57:02.687Z,100042.33
2022-10-22T03:00:12.144Z,100041.52
2022-10-22T03:03:17.161Z,100036.52
2022-10-22T03:09:35.870Z,100032.17
2022-10-22T03:12:42.455Z,100037.71
2022-10-22T03:15:51.178Z,100032.20
2022-10-22T03:18:57.818Z,100029.08
2022-10-22T03:22:07.018Z,100032.95
2022-10-22T03:25:19.048Z,100033.48
2022-10-22T03:28:26.960Z,100026.49
2022-10-22T03:31:33.599Z,100027.73
2022-10-22T03:34:40.259Z,100023.22
2022-10-22T03:37:47.246Z,100030.48
2022-10-22T03:40:54.343Z,100035.09
2022-10-22T03:44:03.339Z,100035.95
2022-10-22T03:47:10.760Z,100043.08
2022-10-22T03:50:17.947Z,100043.41
2022-10-22T03:53:24.607Z,100032.92
2022-10-22T03:56:31.692Z,100025.48
2022-10-22T03:59:39.277Z,100025.05
2022-10-22T04:02:45.816Z,100029.52
2022-10-22T04:05:52.411Z,100033.21
2022-10-22T04:09:01.164Z,100035.33
2022-10-22T04:12:09.747Z,100040.92
2022-10-22T04:15:16.575Z,100042.61
2022-10-22T04:18:24.833Z,100044.57
2022-10-22T04:21:31.292Z,100045.61
2022-10-22T04:24:38.198Z,100038.44
2022-10-22T04:27:45.470Z,100042.44
2022-10-22T04:30:52.345Z,100039.36
2022-10-22T04:34:01.149Z,100038.19
2022-10-22T04:37:07.853Z,100032.19
2022-10-22T04:40:15.560Z,100030.25
2022-10-22T04:43:22.149Z,100032.31
2022-10-22T04:46:31.786Z,100040.16
2022-10-22T04:49:37.046Z,100041.47
2022-10-22T04:52:43.627Z,100049.91
2022-10-22T04:55:50.254Z,100057.48
2022-10-22T04:58:58.071Z,100058.86
2022-10-22T05:02:04.584Z,100048.52
2022-10-22T05:05:11.964Z,100054.18
2022-10-22T05:08:18.585Z,100059.17
2022-10-22T05:11:28.571Z,100051.45
2022-10-22T05:14:35.561Z,100056.10
2022-10-22T05:17:42.743Z,100058.11
2022-10-22T05:20:49.859Z,100052.88
2022-10-22T05:24:00.018Z,100051.81
2022-10-22T05:27:06.826Z,100048.27
2022-10-22T05:30:15.040Z,100047.19
2022-10-22T05:33:24.115Z,100053.91
2022-10-22T05:36:31.281Z,100066.94
2022-10-22T05:39:40.324Z,100081.09
2022-10-22T05:42:46.967Z,100088.17
2022-10-22T05:45:53.705Z,100087.64
2022-10-22T05:49:02.312Z,100081.64
2022-10-22T05:52:08.992Z,100081.04
2022-10-22T05:55:15.612Z,100081.83
2022-10-22T05:58:22.253Z,100080.42
2022-10-22T06:01:30.993Z,100078.83
2022-10-22T06:04:37.616Z,100078.80
2022-10-22T06:07:44.625Z,100079.49
2022-10-22T06:10:51.308Z,100082.16
2022-10-22T06:13:57.918Z,100083.04
2022-10-22T06:17:04.441Z,100085.32
2022-10-22T06:20:13.591Z,100092.90
2022-10-22T06:23:20.388Z,100098.47
2022-10-22T06:26:27.151Z,100103.80
2022-10-22T06:29:34.340Z,100104.08
2022-10-22T06:32:41.691Z,100104.57
2022-10-22T06:35:48.783Z,100103.52
2022-10-22T06:38:56.314Z,100108.83
2022-10-22T06:42:02.813Z,100113.28
2022-10-22T06:45:14.800Z,100108.91
2022-10-22T06:48:21.394Z,100106.13
2022-10-22T06:51:28.521Z,100101.15
2022-10-22T06:54:35.218Z,100106.70
2022-10-22T06:57:42.113Z,100109.19
2022-10-22T07:00:49.069Z,100103.34
2022-10-22T07:03:56.093Z,100106.45
2022-10-22T07:07:03.059Z,100119.67
2022-10-22T07:10:11.333Z,100134.29
2022-10-22T07:13:18.041Z,100144.60
2022-10-22T07:16:29.471Z,100156.42
2022-10-22T07:19:39.024Z,100148.22
2022-10-22T07:22:45.600Z,100139.91
2022-10-22T07:25:52.231Z,100136.51
2022-10-22T07:28:59.234Z,100139.45
2022-10-22T07:32:06.012Z,100146.88
2022-10-22T07:35:13.240Z,100151.14
2022-10-22T07:38:19.770Z,100159.70
2022-10-22T07:41:27.349Z,100164.09
2022-10-22T07:44:34.014Z,100161.71
2022-10-22T07:47:40.993Z,100155.23
2022-10-22T07:50:47.890Z,100161.40
2022-10-22T07:53:54.572Z,100161.54
2022-10-22T07:57:01.279Z,100164.38
2022-10-22T08:00:09.958Z,100163.15
2022-10-22T08:03:20.019Z,100159.09
2022-10-22T08:06:26.563Z,100160.35
2022-10-22T08:09:33.635Z,100160.52
2022-10-22T08:12:40.903Z,100161.86
2022-10-22T08:15:49.698Z,100155.37
2022-10-22T08:18:58.106Z,100152.59
2022-10-22T08:22:05.668Z,100155.44
2022-10-22T08:25:12.808Z,100160.90
2022-10-22T08:28:21.274Z,100165.04
2022-10-22T08:31:28.868Z,100161.77
2022-10-22T08:34:35.484Z,100172.77
2022-10-22T08:37:42.323Z,100177.14
2022-10-22T08:40:54.239Z,100179.06
2022-10-22T08:44:29.973Z,100177.17
2022-10-22T08:47:51.901Z,100177.82
2022-10-22T08:50:59.914Z,100174.58
2022-10-22T08:54:28.703Z,100176.83
2022-10-22T08:57:53.002Z,100174.39
2022-10-22T09:01:03.699Z,100179.52
2022-10-22T09:04:19.656Z,100179.42
2022-10-22T09:07:27.061Z,100180.63
2022-10-22T09:10:37.572Z,100178.51
2022-10-22T09:13:45.975Z,100178.61
2022-10-22T09:17:17.385Z,100182.58
2022-10-22T09:20:29.964Z,100177.89
2022-10-22T09:23:46.198Z,100180.98
2022-10-22T09:26:53.696Z,100189.01
2022-10-22T09:30:01.779Z,100188.64
2022-10-22T09:33:16.083Z,100183.16
2022-10-22T09:36:24.751Z,100182.50
2022-10-22T09:39:35.201Z,100185.23
2022-10-22T09:42:43.755Z,100187.11
2022-10-22T09:45:57.214Z,100179.51
2022-10-22T09:49:08.076Z,100185.21
2022-10-22T09:52:28.641Z,100195.71
2022-10-22T09:55:35.297Z,100201.54
2022-10-22T09:58:51.298Z,100206.13
2022-10-22T10:02:19.460Z,100209.15
2022-10-22T10:05:37.670Z,100215.57
2022-10-22T10:08:44.678Z,100218.66
2022-10-22T10:12:03.943Z,100218.77
2022-10-22T10:15:14.897Z,100223.98
2022-10-22T10:18:33.969Z,100227.31
2022-10-22T10:21:50.130Z,100233.11
2022-10-22T10:25:15.945Z,100228.48
2022-10-22T10:28:37.408Z,100230.14
2022-10-22T10:31:53.659Z,100233.75
2022-10-22T10:35:12.389Z,100235.16
2022-10-22T10:38:33.606Z,100233.67
2022-10-22T10:41:52.706Z,100236.63
2022-10-22T10:45:08.142Z,100234.15
2022-10-22T10:48:28.862Z,100232.45
2022-10-22T10:51:46.808Z,100229.27
2022-10-22T10:55:07.893Z,100228.34
2022-10-22T10:58:20.222Z,100226.49
2022-10-22T11:01:35.122Z,100221.56
2022-10-22T11:05:17.465Z,100219.98
2022-10-22T11:08:27.116Z,100212.23
2022-10-22T11:11:40.871Z,100205.27
2022-10-22T11:15:02.971Z,100208.78
2022-10-22T11:18:19.150Z,100204.20
2022-10-22T11:21:32.756Z,100203.46
2022-10-22T11:24:45.044Z,100208.44
2022-10-22T11:27:58.554Z,100203.78
2022-10-22T11:31:15.697Z,100203.38
2022-10-22T11:34:33.557Z,100202.89
2022-10-22T11:37:41.500Z,100204.64
2022-10-22T11:40:56.258Z,100196.28
2022-10-22T11:44:11.671Z,100197.02
2022-10-22T11:47:29.099Z,100198.84
2022-10-22T11:50:50.948Z,100197.25
2022-10-22T11:54:02.668Z,100200.98
2022-10-22T11:57:24.469Z,100204.64
2022-10-22T12:00:47.609Z,100206.79
2022-10-22T12:04:15.101Z,100202.23
2022-10-22T12:07:50.657Z,100202.88
2022-10-22T12:11:21.196Z,100200.05
2022-10-22T12:14:33.485Z,100200.26
2022-10-22T12:17:43.370Z,100200.35
2022-10-22T12:20:54.801Z,100198.96
2022-10-22T12:24:02.263Z,100195.45
2022-10-22T12:27:22.491Z,100194.73
2022-10-22T12:30:34.715Z,100195.13
2022-10-22T12:33:41.470Z,100192.66
2022-10-22T12:36:52.861Z,100195.46
2022-10-22T12:39:59.429Z,100189.49
2022-10-22T12:43:14.643Z,100187.70
2022-10-22T12:46:21.397Z,100190.73
2022-10-22T12:49:36.130Z,100190.64
2022-10-22T12:52:43.449Z,100192.74
2022-10-22T12:55:53.416Z,100192.98
2022-10-22T12:59:03.026Z,100199.79
2022-10-22T13:02:21.392Z,100203.62
2022-10-22T13:05:34.208Z,100206.86
2022-10-22T13:08:41.473Z,100203.86
2022-10-22T13:11:55.019Z,100205.39
2022-10-22T13:15:22.302Z,100205.98
2022-10-22T13:18:35.786Z,100204.25
2022-10-22T13:21:42.431Z,100209.66
2022-10-22T13:24:52.810Z,100212.41
2022-10-22T13:28:01.912Z,100212.20
2022-10-22T13:31:17.942Z,100215.08
2022-10-22T13:34:26.732Z,100213.40
2022-10-22T13:37:35.772Z,100214.85
2022-10-22T13:40:42.453Z,100214.48
2022-10-22T13:43:49.242Z,100213.48
2022-10-22T13:46:56.981Z,100213.63
2022-10-22T13:50:05.768Z,100221.85
2022-10-22T13:53:19.193Z,100223.66
2022-10-22T13:56:25.915Z,100222.70
2022-10-22T13:59:32.549Z,100228.56
2022-10-22T14:02:39.319Z,100225.61
2022-10-22T14:05:48.794Z,100225.17
2022-10-22T14:08:56.277Z,100223.77
2022-10-22T14:12:02.904Z,100226.02
2022-10-22T14:15:12.596Z,100236.21
2022-10-22T14:18:26.522Z,100239.46
2022-10-22T14:21:38.633Z,100234.17
2022-10-22T14:24:45.552Z,100232.88
2022-10-22T14:27:52.350Z,100238.33
2022-10-22T14:30:59.848Z,100236.73
2022-10-22T14:34:06.373Z,100238.27
2022-10-22T14:37:20.248Z,100241.48
2022-10-22T14:40:26.956Z,100238.49
2022-10-22T14:43:33.624Z,100244.08
2022-10-22T14:46:42.690Z,100240.77
2022-10-22T14:49:49.890Z,100245.52
2022-10-22T14:52:57.353Z,100246.15
2022-10-22T14:56:03.977Z,100246.45
2022-10-22T14:59:10.853Z,100244.23
2022-10-22T15:02:17.503Z,100248.02
2022-10-22T15:05:24.648Z,100255.74
2022-10-22T15:08:31.704Z,100257.05
2022-10-22T15:11:38.464Z,100257.23
2022-10-22T15:14:45.333Z,100263.58
2022-10-22T15:17:51.960Z,100267.61
2022-10-22T15:21:01.075Z,100271.08
2022-10-22T15:24:08.321Z,100272.42
2022-10-22T15:27:15.105Z,100275.06
2022-10-22T15:30:21.773Z,100271.67
2022-10-22T15:33:29.943Z,100272.75
2022-10-22T15:36:36.599Z,100275.66
2022-10-22T15:39:44.026Z,100279.79
2022-10-22T15:42:50.694Z,100285.62
2022-10-22T15:46:12.277Z,100289.41
2022-10-22T15:49:19.247Z,100290.55
2022-10-22T15:52:25.927Z,100290.30
2022-10-22T15:55:32.543Z,100290.14
2022-10-22T15:58:39.161Z,100294.22
2022-10-22T16:01:46.122Z,100294.98
2022-10-22T16:04:52.813Z,100298.66
2022-10-22T16:07:59.472Z,100301.40
2022-10-22T16:11:06.477Z,100309.23
2022-10-22T16:14:15.737Z,100315.48
2022-10-22T16:17:20.930Z,100320.66
2022-10-22T16:20:27.628Z,100320.23
2022-10-22T16:23:34.807Z,100320.88
2022-10-22T16:26:41.445Z,100326.08
2022-10-22T16:29:48.063Z,100327.23
2022-10-22T16:32:55.026Z,100327.77
2022-10-22T16:36:01.704Z,100331.56
2022-10-22T16:39:09.328Z,100334.21
2022-10-22T16:42:16.279Z,100337.00
2022-10-22T16:45:22.914Z,100339.41
2022-10-22T16:48:29.764Z,100339.88
2022-10-22T16:51:37.084Z,100344.03
2022-10-22T16:54:43.687Z,100350.54
2022-10-22T16:57:54.499Z,100353.61
2022-10-22T17:01:01.537Z,100355.77
2022-10-22T17:04:08.090Z,100362.83
2022-10-22T17:07:14.743Z,100366.28
2022-10-22T17:13:33.631Z,100368.17
2022-10-22T17:16:40.174Z,100371.02
2022-10-22T17:19:46.882Z,100372.48
2022-10-22T17:22:53.487Z,100377.89
2022-10-22T17:26:02.544Z,100377.21
2022-10-22T17:29:09.239Z,100379.26
2022-10-22T17:32:15.926Z,100378.77
2022-10-22T17:35:22.641Z,100383.08
2022-10-22T17:38:29.785Z,100386.96
2022-10-22T17:41:38.188Z,100392.80
2022-10-22T17:44:44.841Z,100394.48
2022-10-22T17:47:52.174Z,100399.61
2022-10-22T17:50:59.384Z,100399.81
2022-10-22T17:54:08.966Z,100399.52
2022-10-22T17:57:17.382Z,100403.41
2022-10-22T18:00:24.422Z,100404.01
2022-10-22T18:03:31.143Z,100403.95
2022-10-22T18:06:38.772Z,100405.50
2022-10-22T18:09:46.330Z,100411.19
2022-10-22T18:12:52.974Z,100412.35
2022-10-22T18:15:59.588Z,100419.19
2022-10-22T18:19:06.700Z,100423.86
2022-10-22T18:22:13.293Z,100429.13
2022-10-22T18:25:19.872Z,100430.85
2022-10-22T18:28:26.580Z,100431.06
2022-10-22T18:31:33.444Z,100433.09
2022-10-22T18:34:40.020Z,100433.42
2022-10-22T18:37:46.641Z,100433.55
2022-10-22T18:40:53.339Z,100434.49
2022-10-22T18:44:02.149Z,100436.36
2022-10-22T18:47:09.154Z,100439.67
2022-10-22T18:50:16.392Z,100443.50
2022-10-22T18:53:23.024Z,100442.48
2022-10-22T18:56:29.856Z,100448.26
2022-10-22T18:59:36.689Z,100447.13
2022-10-22T19:02:44.101Z,100449.95
2022-10-22T19:05:54.878Z,100450.94
2022-10-22T19:09:04.336Z,100455.64
2022-10-22T19:12:15.054Z,100456.90
2022-10-22T19:15:21.788Z,100457.54
2022-10-22T19:18:28.529Z,100462.51
2022-10-22T19:21:35.744Z,100462.89
2022-10-22T19:24:42.479Z,100469.46
2022-10-22T19:27:49.473Z,100469.40
2022-10-22T19:30:56.239Z,100476.73
2022-10-22T19:34:03.919Z,100480.61
2022-10-22T19:37:10.653Z,100480.95
2022-10-22T19:40:17.443Z,100482.78
2022-10-22T19:43:24.162Z,100488.90
2022-10-22T19:46:32.767Z,100491.85
2022-10-22T19:49:39.498Z,100499.15
2022-10-22T19:52:46.189Z,100502.91
2022-10-22T19:55:52.875Z,100506.31
2022-10-22T19:59:00.051Z,100511.20
2022-10-22T20:02:07.150Z,100514.11
2022-10-22T20:05:14.556Z,100512.35
2022-10-22T20:08:21.276Z,100516.89
2022-10-22T20:11:29.927Z,100519.40
2022-10-22T20:14:37.653Z,100521.50
2022-10-22T20:17:44.467Z,100524.73
2022-10-22T20:20:51.535Z,100527.70
2022-10-22T20:23:58.365Z,100531.95
2022-10-22T20:27:05.090Z,100532.73
2022-10-22T20:30:14.657Z,100535.31
2022-10-22T20:33:19.767Z,100533.82
2022-10-22T20:36:27.440Z,100534.69
2022-10-22T20:39:34.391Z,100538.05
2022-10-22T20:42:41.352Z,100535.21
2022-10-22T20:45:48.182Z,100532.70
2022-10-22T20:48:57.520Z,100534.21
2022-10-22T20:52:02.525Z,100533.84
2022-10-22T20:55:09.998Z,100538.27
2022-10-22T20:58:17.683Z,100538.61
2022-10-22T21:01:24.483Z,100542.55
2022-10-22T21:04:31.653Z,100542.93
2022-10-22T21:07:38.678Z,100546.34
2022-10-22T21:10:49.238Z,100550.31
2022-10-22T21:13:55.958Z,100550.12
2022-10-22T21:17:02.582Z,100553.52
2022-10-22T21:23:17.938Z,100553.99
2022-10-22T21:26:24.780Z,100559.27
2022-10-22T21:29:31.819Z,100553.30
2022-10-22T21:32:38.445Z,100555.26
2022-10-22T21:35:53.467Z,100556.02
2022-10-22T21:39:00.278Z,100556.38
2022-10-22T21:42:07.029Z,100563.09
2022-10-22T21:45:16.464Z,100559.55
2022-10-22T21:48:25.476Z,100557.75
2022-10-22T21:51:35.325Z,100556.73
2022-10-22T21:54:41.934Z,100559.42
2022-10-22T21:57:48.660Z,100558.15
2022-10-22T22:00:58.247Z,100562.92
2022-10-22T22:04:05.144Z,100561.45
2022-10-22T22:07:11.770Z,100562.10
2022-10-22T22:10:18.707Z,100565.00
2022-10-22T22:13:25.353Z,100565.70
2022-10-22T22:16:34.045Z,100564.27
2022-10-22T22:19:40.778Z,100572.29
2022-10-22T22:22:47.510Z,100577.38
2022-10-22T22:25:54.192Z,100578.64
2022-10-22T22:29:02.080Z,100573.53
2022-10-22T22:32:08.880Z,100579.36
2022-10-22T22:35:15.544Z,100581.86
2022-10-22T22:38:22.152Z,100588.02
2022-10-22T22:41:29.017Z,100592.10
2022-10-22T22:44:35.782Z,100593.91
2022-10-22T22:47:42.452Z,100595.13
2022-10-22T22:50:49.347Z,100592.08
2022-10-22T22:53:57.949Z,100591.81
2022-10-22T22:57:04.569Z,100589.23
2022-10-22T23:00:14.199Z,100589.73
2022-10-22T23:03:20.711Z,100590.20
2022-10-22T23:06:28.888Z,100593.96
2022-10-22T23:09:35.640Z,100596.44
2022-10-22T23:12:42.370Z,100594.70
2022-10-22T23:15:49.229Z,100589.44
2022-10-22T23:18:56.864Z,100590.36
2022-10-22T23:22:03.415Z,100594.34
2022-10-22T23:25:11.055Z,100592.70
2022-10-22T23:28:17.803Z,100594.05
2022-10-22T23:31:24.352Z,100597.77
2022-10-22T23:34:32.437Z,100594.38
2022-10-22T23:37:39.283Z,100596.11
2022-10-22T23:40:46.284Z,100591.36
2022-10-22T23:43:52.878Z,100591.77
2022-10-22T23:46:59.526Z,100588.59
2022-10-22T23:50:06.727Z,100594.14
2022-10-22T23:53:13.673Z,100590.28
2022-10-22T23:56:20.683Z,100591.41
2022-10-22T23:59:27.301Z,100591.20
